createdAt,value
2023-03-08T00:00:27.440Z,1.00
2023-03-08T00:05:48.971Z,0.80
2023-03-08T00:11:12.601Z,0.80
2023-03-08T00:16:34.516Z,0.90
2023-03-08T00:21:56.561Z,0.90
2023-03-08T00:27:18.155Z,0.70
2023-03-08T00:32:40.073Z,0.60
2023-03-08T00:38:01.400Z,0.80
2023-03-08T00:43:23.458Z,0.80
2023-03-08T00:48:44.912Z,0.90
2023-03-08T00:54:06.732Z,0.60
2023-03-08T00:59:28.393Z,0.80
2023-03-08T01:04:51.060Z,0.60
2023-03-08T01:10:12.999Z,0.50
2023-03-08T01:15:41.950Z,0.50
2023-03-08T01:21:04.974Z,0.60
2023-03-08T01:26:28.134Z,0.60
2023-03-08T01:31:50.299Z,0.80
2023-03-08T01:37:11.890Z,0.80
2023-03-08T01:42:37.967Z,0.80
2023-03-08T01:47:59.850Z,0.90
2023-03-08T01:53:42.686Z,0.90
2023-03-08T01:59:04.756Z,0.90
2023-03-08T02:04:27.729Z,0.70
2023-03-08T02:09:50.906Z,0.70
2023-03-08T02:15:15.482Z,0.80
2023-03-08T02:20:40.798Z,0.90
2023-03-08T02:26:05.601Z,0.80
2023-03-08T02:31:26.944Z,0.90
2023-03-08T02:36:48.552Z,0.80
2023-03-08T02:42:10.396Z,0.90
2023-03-08T02:47:31.822Z,0.90
2023-03-08T02:52:53.595Z,0.90
2023-03-08T02:58:15.157Z,1.00
2023-03-08T03:03:36.602Z,1.00
2023-03-08T03:08:58.277Z,1.00
2023-03-08T03:14:20.972Z,1.00
2023-03-08T03:19:45.142Z,1.10
2023-03-08T03:25:07.227Z,1.10
2023-03-08T03:30:29.542Z,1.00
2023-03-08T03:35:51.678Z,1.10
2023-03-08T03:41:16.288Z,1.00
2023-03-08T03:46:39.045Z,0.90
2023-03-08T03:52:03.399Z,0.70
2023-03-08T03:57:35.440Z,0.70
2023-03-08T04:02:57.062Z,0.80
2023-03-08T04:08:20.193Z,0.80
2023-03-08T04:13:42.797Z,0.90
2023-03-08T04:19:11.875Z,0.80
2023-03-08T04:24:36.581Z,0.80
2023-03-08T04:30:04.393Z,0.90
2023-03-08T04:35:26.786Z,0.70
2023-03-08T04:41:02.098Z,0.60
2023-03-08T04:46:30.260Z,0.70
2023-03-08T04:51:52.929Z,0.70
2023-03-08T04:57:16.076Z,0.80
2023-03-08T05:02:37.665Z,0.80
2023-03-08T05:08:05.415Z,0.80
2023-03-08T05:13:35.519Z,0.80
2023-03-08T05:18:57.438Z,0.80
2023-03-08T05:24:25.054Z,0.80
2023-03-08T05:29:46.646Z,0.80
2023-03-08T05:35:09.719Z,0.90
2023-03-08T05:40:33.415Z,0.90
2023-03-08T05:45:59.330Z,0.90
2023-03-08T05:51:22.819Z,1.00
2023-03-08T05:56:44.816Z,1.00
2023-03-08T06:02:16.596Z,1.00
2023-03-08T06:07:47.877Z,1.10
2023-03-08T06:13:09.876Z,1.10
2023-03-08T06:18:31.681Z,1.10
2023-03-08T06:23:53.501Z,1.10
2023-03-08T06:29:14.990Z,1.10
2023-03-08T06:34:36.768Z,1.20
2023-03-08T06:39:58.371Z,1.30
2023-03-08T06:45:20.479Z,1.30
2023-03-08T06:50:42.447Z,1.40
2023-03-08T06:56:06.889Z,1.50
2023-03-08T07:01:29.979Z,1.50
2023-03-08T07:06:51.613Z,1.60
2023-03-08T07:12:13.184Z,1.70
2023-03-08T07:17:35.765Z,1.70
2023-03-08T07:22:57.622Z,1.80
2023-03-08T07:28:19.562Z,1.80
2023-03-08T07:33:41.042Z,1.90
2023-03-08T07:39:02.854Z,1.90
2023-03-08T07:44:24.732Z,1.80
2023-03-08T07:49:46.396Z,1.90
2023-03-08T07:55:09.252Z,2.00
2023-03-08T08:00:31.199Z,1.80
2023-03-08T08:05:52.959Z,2.00
2023-03-08T08:11:16.967Z,2.10
2023-03-08T08:16:38.506Z,2.00
2023-03-08T08:22:00.447Z,2.10
2023-03-08T08:27:21.935Z,2.10
2023-03-08T08:32:43.408Z,2.30
2023-03-08T08:38:05.032Z,2.20
2023-03-08T08:43:26.667Z,2.30
2023-03-08T08:48:48.405Z,2.30
2023-03-08T08:54:10.080Z,2.30
2023-03-08T08:59:31.552Z,2.30
2023-03-08T09:04:53.288Z,2.30
2023-03-08T09:10:14.755Z,2.50
2023-03-08T09:15:37.469Z,2.40
2023-03-08T09:21:01.164Z,2.50
2023-03-08T09:26:22.870Z,2.70
2023-03-08T09:31:45.569Z,2.70
2023-03-08T09:37:08.476Z,2.60
2023-03-08T09:42:34.624Z,2.80
2023-03-08T09:48:19.952Z,2.90
2023-03-08T09:53:54.903Z,2.90
2023-03-08T09:59:28.407Z,2.90
2023-03-08T10:05:11.862Z,3.00
2023-03-08T10:10:53.446Z,3.00
2023-03-08T10:16:32.660Z,3.00
2023-03-08T10:21:57.357Z,3.10
2023-03-08T10:27:23.704Z,3.10
2023-03-08T10:32:48.071Z,3.00
2023-03-08T10:38:17.185Z,3.00
2023-03-08T10:43:45.039Z,2.90
2023-03-08T10:49:27.965Z,2.90
2023-03-08T10:55:07.266Z,2.80
2023-03-08T11:00:38.036Z,2.70
2023-03-08T11:06:05.881Z,2.90
2023-03-08T11:11:28.004Z,2.80
2023-03-08T11:16:52.862Z,2.80
2023-03-08T11:22:36.240Z,2.60
2023-03-08T11:28:32.112Z,2.80
2023-03-08T11:34:11.882Z,2.80
2023-03-08T11:39:46.314Z,2.90
2023-03-08T11:45:31.802Z,3.00
2023-03-08T11:51:27.096Z,3.00
2023-03-08T11:56:58.702Z,3.00
2023-03-08T12:02:34.869Z,2.90
2023-03-08T12:08:22.255Z,3.00
2023-03-08T12:13:57.383Z,2.80
2023-03-08T12:19:35.950Z,3.00
2023-03-08T12:25:24.973Z,3.10
2023-03-08T12:31:18.128Z,2.80
2023-03-08T12:36:47.826Z,2.90
2023-03-08T12:42:15.234Z,2.90
2023-03-08T12:47:37.168Z,2.90
2023-03-08T12:52:59.065Z,3.00
2023-03-08T12:58:22.524Z,3.20
2023-03-08T13:03:44.655Z,3.30
2023-03-08T13:09:13.857Z,3.30
2023-03-08T13:15:00.534Z,3.40
2023-03-08T13:20:28.863Z,3.10
2023-03-08T13:26:10.782Z,3.10
2023-03-08T13:31:33.086Z,3.00
2023-03-08T13:36:55.204Z,3.10
2023-03-08T13:42:16.808Z,3.00
2023-03-08T13:47:41.038Z,3.10
2023-03-08T13:53:04.367Z,3.20
2023-03-08T13:58:34.888Z,3.40
2023-03-08T14:04:10.723Z,3.40
2023-03-08T14:09:33.650Z,3.50
2023-03-08T14:15:02.626Z,3.40
2023-03-08T14:20:25.768Z,3.50
2023-03-08T14:25:57.197Z,3.40
2023-03-08T14:31:26.860Z,3.50
2023-03-08T14:37:02.482Z,3.50
2023-03-08T14:42:48.548Z,3.60
2023-03-08T14:48:28.900Z,3.70
2023-03-08T14:54:33.208Z,3.70
2023-03-08T15:00:02.509Z,3.80
2023-03-08T15:05:29.200Z,3.80
2023-03-08T15:10:51.726Z,3.90
2023-03-08T15:16:14.613Z,4.00
2023-03-08T15:21:38.287Z,4.00
2023-03-08T15:26:59.661Z,4.00
2023-03-08T15:32:21.362Z,3.90
2023-03-08T15:37:44.111Z,4.00
2023-03-08T15:43:05.601Z,4.00
2023-03-08T15:48:27.252Z,4.00
2023-03-08T15:53:49.784Z,4.00
2023-03-08T15:59:11.512Z,4.00
2023-03-08T16:04:33.170Z,4.00
2023-03-08T16:09:54.861Z,3.90
2023-03-08T16:15:16.691Z,3.90
2023-03-08T16:20:41.373Z,3.90
2023-03-08T16:26:15.392Z,3.80
2023-03-08T16:31:38.356Z,3.80
2023-03-08T16:37:00.348Z,3.80
2023-03-08T16:42:22.911Z,3.80
2023-03-08T16:47:44.481Z,3.70
2023-03-08T16:53:06.921Z,3.70
2023-03-08T16:58:29.097Z,3.70
2023-03-08T17:03:50.522Z,3.60
2023-03-08T17:09:12.894Z,3.60
2023-03-08T17:14:35.070Z,3.60
2023-03-08T17:19:58.268Z,3.40
2023-03-08T17:25:19.849Z,3.40
2023-03-08T17:30:42.012Z,3.40
2023-03-08T17:36:05.432Z,3.30
2023-03-08T17:41:27.287Z,3.20
2023-03-08T17:46:48.899Z,3.20
2023-03-08T17:52:10.796Z,3.20
2023-03-08T17:57:32.569Z,3.20
2023-03-08T18:02:54.683Z,3.10
2023-03-08T18:08:16.575Z,3.10
2023-03-08T18:13:40.601Z,3.00
2023-03-08T18:19:03.625Z,3.00
2023-03-08T18:24:27.085Z,3.00
2023-03-08T18:29:48.735Z,3.00
2023-03-08T18:35:13.402Z,3.00
2023-03-08T18:40:35.118Z,3.00
2023-03-08T18:45:57.611Z,3.00
2023-03-08T18:51:19.108Z,3.00
2023-03-08T18:56:40.598Z,3.00
2023-03-08T19:02:02.558Z,3.00
2023-03-08T19:07:24.116Z,3.00
2023-03-08T19:12:45.793Z,2.90
2023-03-08T19:18:08.074Z,3.00
2023-03-08T19:23:29.678Z,3.00
2023-03-08T19:28:51.373Z,3.00
2023-03-08T19:34:13.788Z,3.10
2023-03-08T19:39:38.279Z,3.10
2023-03-08T19:44:59.853Z,3.10
2023-03-08T19:50:21.412Z,3.10
2023-03-08T19:55:54.435Z,3.10
2023-03-08T20:01:18.830Z,3.20
2023-03-08T20:06:45.709Z,3.20
2023-03-08T20:12:07.950Z,3.20
2023-03-08T20:17:32.193Z,3.30
2023-03-08T20:22:53.831Z,3.30
2023-03-08T20:28:15.451Z,3.30
2023-03-08T20:33:37.208Z,3.30
2023-03-08T20:38:59.378Z,3.30
2023-03-08T20:44:21.025Z,3.20
2023-03-08T20:49:42.712Z,3.20
2023-03-08T20:55:05.140Z,3.20
2023-03-08T21:00:27.408Z,3.20
2023-03-08T21:05:48.959Z,3.20
2023-03-08T21:11:10.815Z,3.20
2023-03-08T21:16:33.596Z,3.20
2023-03-08T21:21:55.235Z,3.20
2023-03-08T21:27:16.972Z,3.20
2023-03-08T21:32:38.650Z,3.20
2023-03-08T21:38:00.522Z,3.20
2023-03-08T21:43:23.997Z,3.20
2023-03-08T21:48:46.284Z,3.20
2023-03-08T21:54:07.752Z,3.20
2023-03-08T21:59:29.522Z,3.20
2023-03-08T22:04:51.192Z,3.20
2023-03-08T22:10:14.908Z,3.20
2023-03-08T22:15:36.351Z,3.20
2023-03-08T22:20:58.555Z,3.20
2023-03-08T22:26:21.237Z,3.20
2023-03-08T22:31:42.889Z,3.20
2023-03-08T22:37:06.254Z,3.20
2023-03-08T22:42:28.177Z,3.20
2023-03-08T22:47:52.203Z,3.20
2023-03-08T22:53:13.616Z,3.20
2023-03-08T22:58:35.281Z,3.20
2023-03-08T23:03:59.714Z,3.20
2023-03-08T23:09:22.361Z,3.20
2023-03-08T23:14:45.357Z,3.20
2023-03-08T23:20:10.204Z,3.20
2023-03-08T23:25:31.945Z,3.20
2023-03-08T23:30:53.475Z,3.20
2023-03-08T23:36:17.784Z,3.20
2023-03-08T23:41:40.794Z,3.20
2023-03-08T23:47:02.530Z,3.20
2023-03-08T23:52:24.203Z,3.30
2023-03-08T23:57:45.858Z,3.30
